Terminal Aerodrome Forecast
Issued by NWS

Home | Current Version | Previous Version | Text Only | Print | Product List | Glossary On
Versions: 1 2 3 4 5 6 7 8 9 10 11 12 13 14 15 16 17 18 19 20 21 22
000
FTUS43 KGRB 310042 AAA
TAFATW
TAF AMD
KATW 310042Z 3101/3124 29007KT P6SM SCT050 BKN200
     FM310120 01010G16KT P6SM SCT030 BKN050
      TEMPO 3102/3104 BKN030
     FM310800 36005KT P6SM SKC
     FM311500 36009G17KT P6SM SCT045
     FM312200 02007KT P6SM SKC=

USA.gov is the U.S. government's official web portal to all federal, state and local government web resources and services.